Time;durP1;ratioP1;P1;durP2;ratioP2;P2;SDS_P1;SDS_P2;PMS_P1;PMS_P2;Temp;Humidity;BMP_temperature;BMP_pressure;BME280_temperature;BME280_humidity;BME280_pressure;Samples;Min_cycle;Max_cycle;Signal;HPM_P1;HPM_P2
2023/01/04 00:01:55;;;;;;;;;;;21.00;46.20;;;;;;5075238;28;19921;-68
2023/01/04 00:04:22;;;;;;;;;;;21.00;46.20;;;;;;5075292;28;19927;-68
2023/01/04 00:06:49;;;;;;;;;;;21.00;46.20;;;;;;5075926;28;19971;-68
2023/01/04 00:09:16;;;;;;;;;;;21.00;46.20;;;;;;5074843;28;20600;-68
2023/01/04 00:11:42;;;;;;;;;;;21.00;46.20;;;;;;5075351;28;19920;-68
2023/01/04 00:14:10;;;;;;;;;;;21.00;46.20;;;;;;5074582;28;20372;-68
2023/01/04 00:16:36;;;;;;;;;;;21.00;46.20;;;;;;5074593;28;19926;-68
2023/01/04 00:19:04;;;;;;;;;;;21.00;46.20;;;;;;5075556;28;19920;-68
2023/01/04 00:21:30;;;;;;;;;;;21.00;46.20;;;;;;5074040;28;19920;-68
2023/01/04 00:23:59;;;;;;;;;;;21.00;46.20;;;;;;5075494;28;19920;-68
2023/01/04 00:26:27;;;;;;;;;;;21.00;46.20;;;;;;5057426;28;19920;-67
2023/01/04 00:28:55;;;;;;;;;;;21.00;46.20;;;;;;5075530;28;19952;-66
2023/01/04 00:31:23;;;;;;;;;;;21.00;46.10;;;;;;5075458;28;19920;-66
2023/01/04 00:33:53;;;;;;;;;;;21.00;46.10;;;;;;5074889;28;19977;-66
2023/01/04 00:36:19;;;;;;;;;;;21.00;46.10;;;;;;5075236;28;20030;-66
2023/01/04 00:38:46;;;;;;;;;;;20.90;46.10;;;;;;5075605;28;19927;-67
2023/01/04 00:41:13;;;;;;;;;;;20.90;46.10;;;;;;5073933;28;19920;-66
2023/01/04 00:44:02;;;;;;;;;;;20.90;46.10;;;;;;5074983;28;20168;-67
2023/01/04 00:46:29;;;;;;;;;;;20.90;46.10;;;;;;5074910;28;20423;-67
2023/01/04 00:48:57;;;;;;;;;;;20.90;46.10;;;;;;5074811;28;19921;-67
2023/01/04 00:51:27;;;;;;;;;;;20.90;46.10;;;;;;5074770;28;19963;-67
2023/01/04 00:53:54;;;;;;;;;;;20.90;46.10;;;;;;5074379;28;19974;-66
2023/01/04 00:56:21;;;;;;;;;;;20.90;46.10;;;;;;5074857;28;20261;-66
2023/01/04 00:58:48;;;;;;;;;;;20.90;46.10;;;;;;5075187;28;20004;-67
2023/01/04 01:01:15;;;;;;;;;;;20.90;46.10;;;;;;5074066;28;19974;-66
2023/01/04 01:03:43;;;;;;;;;;;20.90;46.10;;;;;;5074673;28;19924;-66
2023/01/04 01:06:11;;;;;;;;;;;20.90;46.10;;;;;;5075366;28;19928;-67
2023/01/04 01:08:38;;;;;;;;;;;20.90;46.10;;;;;;5056824;28;20313;-67
2023/01/04 01:11:06;;;;;;;;;;;20.90;46.00;;;;;;5074070;28;19920;-66
2023/01/04 01:13:34;;;;;;;;;;;20.90;46.00;;;;;;5073862;28;19924;-66
2023/01/04 01:16:03;;;;;;;;;;;20.90;46.00;;;;;;5073108;28;19920;-66
2023/01/04 01:18:29;;;;;;;;;;;20.90;46.10;;;;;;5073972;28;19925;-66
2023/01/04 01:20:56;;;;;;;;;;;20.90;46.00;;;;;;5073880;28;19927;-66
2023/01/04 01:23:23;;;;;;;;;;;20.90;46.00;;;;;;5072737;28;20427;-66
2023/01/04 01:25:50;;;;;;;;;;;20.90;46.10;;;;;;5073652;28;19931;-66
2023/01/04 01:28:17;;;;;;;;;;;20.90;46.10;;;;;;5073660;28;19934;-67
2023/01/04 01:30:44;;;;;;;;;;;20.90;46.10;;;;;;5073052;28;20360;-67
2023/01/04 01:33:11;;;;;;;;;;;20.90;46.10;;;;;;5073291;28;20360;-66
2023/01/04 01:35:38;;;;;;;;;;;20.90;46.00;;;;;;5074105;28;20002;-66
2023/01/04 01:38:05;;;;;;;;;;;20.90;46.10;;;;;;5074964;28;19942;-66
2023/01/04 01:40:32;;;;;;;;;;;20.90;46.10;;;;;;5074106;28;19920;-66
2023/01/04 01:42:59;;;;;;;;;;;20.90;46.00;;;;;;5074171;28;19920;-66
2023/01/04 01:45:31;;;;;;;;;;;20.90;46.00;;;;;;5074587;28;19920;-66
2023/01/04 01:48:00;;;;;;;;;;;20.90;46.00;;;;;;5073785;28;19935;-66
2023/01/04 01:50:30;;;;;;;;;;;20.90;46.00;;;;;;5073685;28;19925;-66
2023/01/04 01:52:58;;;;;;;;;;;20.90;46.00;;;;;;5073690;28;19926;-66
2023/01/04 01:55:27;;;;;;;;;;;20.90;46.00;;;;;;5075018;28;19920;-66
2023/01/04 01:57:54;;;;;;;;;;;20.90;46.00;;;;;;5073571;28;19921;-66
2023/01/04 02:00:21;;;;;;;;;;;20.90;46.00;;;;;;5074536;28;19920;-66
2023/01/04 02:02:52;;;;;;;;;;;20.90;46.00;;;;;;5073527;28;20398;-66
2023/01/04 02:05:20;;;;;;;;;;;20.90;45.90;;;;;;5073868;28;19966;-66
2023/01/04 02:07:47;;;;;;;;;;;20.90;45.90;;;;;;5073850;28;19951;-66
2023/01/04 02:10:15;;;;;;;;;;;20.90;45.90;;;;;;5074028;28;19920;-66
2023/01/04 02:12:42;;;;;;;;;;;20.90;46.00;;;;;;5073911;28;20395;-66
2023/01/04 02:15:09;;;;;;;;;;;20.90;45.90;;;;;;5073965;28;20432;-66
2023/01/04 02:17:48;;;;;;;;;;;20.80;45.90;;;;;;5073067;28;20007;-66
2023/01/04 02:20:32;;;;;;;;;;;20.90;45.90;;;;;;5056232;28;19942;-66
2023/01/04 02:23:12;;;;;;;;;;;20.90;45.90;;;;;;5073564;28;19927;-66
2023/01/04 02:25:58;;;;;;;;;;;20.90;45.90;;;;;;5073445;28;19959;-66
2023/01/04 02:28:45;;;;;;;;;;;20.80;45.80;;;;;;5059286;28;20011;-66
2023/01/04 02:31:18;;;;;;;;;;;20.90;45.90;;;;;;5073294;28;19924;-66
2023/01/04 02:33:54;;;;;;;;;;;20.90;45.90;;;;;;5055439;28;19920;-67
2023/01/04 02:36:29;;;;;;;;;;;20.90;45.90;;;;;;5073774;28;19999;-66
2023/01/04 02:39:01;;;;;;;;;;;20.90;45.90;;;;;;5072838;28;19920;-66
2023/01/04 02:41:36;;;;;;;;;;;20.80;45.80;;;;;;5073345;28;19927;-66
2023/01/04 02:47:05;;;;;;;;;;;20.80;45.80;;;;;;5072366;28;19930;-66
2023/01/04 02:52:20;;;;;;;;;;;20.80;45.80;;;;;;5073027;28;19963;-66
2023/01/04 02:54:48;;;;;;;;;;;20.80;45.80;;;;;;5072996;28;19920;-67
2023/01/04 02:57:21;;;;;;;;;;;20.80;45.80;;;;;;5072782;28;19920;-66
2023/01/04 03:00:08;;;;;;;;;;;20.80;45.90;;;;;;5073411;28;19920;-67
2023/01/04 03:08:39;;;;;;;;;;;20.80;45.80;;;;;;5073741;28;20011;-66
2023/01/04 03:14:00;;;;;;;;;;;20.80;45.80;;;;;;5073244;28;19967;-66
2023/01/04 03:16:48;;;;;;;;;;;20.80;45.80;;;;;;5073549;28;19921;-66
2023/01/04 03:19:50;;;;;;;;;;;20.80;45.80;;;;;;5073467;28;19920;-66
2023/01/04 03:22:04;;;;;;;;;;;20.80;45.80;;;;;;5072600;28;19920;-66
2023/01/04 03:35:56;;;;;;;;;;;20.80;45.80;;;;;;5074678;28;19920;-66
2023/01/04 03:49:59;;;;;;;;;;;20.80;45.80;;;;;;5072917;28;19920;-66
2023/01/04 03:52:28;;;;;;;;;;;20.80;45.80;;;;;;5076720;28;20016;-67
2023/01/04 03:54:56;;;;;;;;;;;20.80;46.40;;;;;;5082253;28;19942;-66
2023/01/04 03:57:24;;;;;;;;;;;20.80;45.80;;;;;;5089174;28;20271;-66
2023/01/04 03:59:52;;;;;;;;;;;20.80;45.80;;;;;;5089418;28;19920;-66
2023/01/04 04:02:23;;;;;;;;;;;20.80;45.80;;;;;;5080999;28;19920;-66
2023/01/04 04:10:24;;;;;;;;;;;20.80;45.70;;;;;;5095663;28;19926;-66
2023/01/04 04:12:51;;;;;;;;;;;20.80;45.70;;;;;;5094877;28;19920;-66
2023/01/04 04:15:18;;;;;;;;;;;20.80;45.70;;;;;;5096086;28;19923;-66
2023/01/04 04:17:45;;;;;;;;;;;20.80;45.70;;;;;;5094484;28;19919;-66
2023/01/04 04:20:12;;;;;;;;;;;20.80;45.70;;;;;;5085540;28;20001;-66
2023/01/04 04:22:39;;;;;;;;;;;20.80;45.70;;;;;;5084206;28;19924;-66
2023/01/04 04:25:06;;;;;;;;;;;20.80;45.70;;;;;;5075589;28;20342;-67
2023/01/04 04:27:33;;;;;;;;;;;20.80;45.70;;;;;;5085349;28;19963;-67
2023/01/04 04:30:01;;;;;;;;;;;20.80;45.70;;;;;;5076126;28;19926;-66
2023/01/04 04:32:28;;;;;;;;;;;20.80;45.70;;;;;;5082154;28;20018;-66
2023/01/04 04:34:55;;;;;;;;;;;20.80;45.70;;;;;;5082983;28;19920;-66
2023/01/04 04:37:22;;;;;;;;;;;20.80;45.70;;;;;;5084533;28;19923;-66
2023/01/04 04:39:49;;;;;;;;;;;20.80;45.70;;;;;;5094217;28;20287;-66
2023/01/04 04:42:16;;;;;;;;;;;20.70;45.60;;;;;;5073514;28;19929;-66
2023/01/04 04:44:43;;;;;;;;;;;20.70;45.70;;;;;;5088082;28;20014;-66
2023/01/04 04:47:09;;;;;;;;;;;20.70;45.70;;;;;;5095967;28;19920;-67
2023/01/04 04:49:36;;;;;;;;;;;20.80;45.70;;;;;;5070213;28;19927;-66
2023/01/04 04:52:03;;;;;;;;;;;20.70;45.60;;;;;;5083421;28;19927;-66
2023/01/04 04:54:30;;;;;;;;;;;20.70;45.60;;;;;;5080066;28;19927;-66
2023/01/04 04:56:57;;;;;;;;;;;20.70;45.60;;;;;;5091124;28;20018;-66
2023/01/04 04:59:24;;;;;;;;;;;20.70;45.70;;;;;;5075417;28;20007;-66
2023/01/04 05:01:51;;;;;;;;;;;20.70;45.60;;;;;;5066751;28;19920;-66
2023/01/04 05:04:18;;;;;;;;;;;20.80;45.70;;;;;;5062064;28;19920;-67
2023/01/04 05:06:46;;;;;;;;;;;20.70;45.60;;;;;;5087580;28;19920;-66
2023/01/04 05:09:13;;;;;;;;;;;20.70;45.60;;;;;;5065808;28;20011;-67
2023/01/04 05:14:27;;;;;;;;;;;20.70;45.60;;;;;;5067982;28;19935;-66
2023/01/04 05:16:54;;;;;;;;;;;20.70;45.70;;;;;;5066727;28;19921;-66
2023/01/04 05:19:21;;;;;;;;;;;20.70;45.70;;;;;;5065237;28;19930;-66
2023/01/04 05:21:48;;;;;;;;;;;20.70;45.70;;;;;;5065281;28;20379;-66
2023/01/04 05:24:15;;;;;;;;;;;20.70;45.70;;;;;;5065897;28;19920;-67
2023/01/04 05:26:42;;;;;;;;;;;20.70;45.70;;;;;;5095539;28;19924;-66
2023/01/04 05:30:49;;;;;;;;;;;20.70;45.70;;;;;;5095025;28;19920;-66
2023/01/04 05:31:56;;;;;;;;;;;20.70;45.70;;;;;;5085253;28;19920;-66
2023/01/04 05:34:23;;;;;;;;;;;20.70;45.70;;;;;;5088531;28;19924;-66
2023/01/04 05:36:50;;;;;;;;;;;20.70;45.70;;;;;;5075759;28;19927;-66
2023/01/04 05:39:17;;;;;;;;;;;20.70;45.40;;;;;;5074975;28;19928;-67
2023/01/04 05:44:30;;;;;;;;;;;20.70;45.30;;;;;;5077564;28;20018;-67
2023/01/04 05:46:57;;;;;;;;;;;20.60;45.10;;;;;;5076962;28;20283;-66
2023/01/04 05:49:24;;;;;;;;;;;20.60;45.10;;;;;;5083067;28;20391;-67
2023/01/04 05:51:51;;;;;;;;;;;20.60;45.20;;;;;;5095014;28;19920;-66
2023/01/04 05:54:18;;;;;;;;;;;20.60;45.20;;;;;;5093780;28;19973;-67
2023/01/04 05:56:47;;;;;;;;;;;20.60;45.10;;;;;;5075000;28;19920;-66
2023/01/04 05:59:14;;;;;;;;;;;20.60;45.20;;;;;;5073265;28;20018;-68
2023/01/04 06:01:41;;;;;;;;;;;20.60;45.20;;;;;;5087973;28;19920;-67
2023/01/04 06:04:09;;;;;;;;;;;20.60;45.20;;;;;;5081370;28;19925;-67
2023/01/04 06:06:36;;;;;;;;;;;20.60;45.10;;;;;;5074409;28;19920;-67
2023/01/04 06:09:03;;;;;;;;;;;20.60;45.10;;;;;;5093793;28;20015;-67
2023/01/04 06:11:30;;;;;;;;;;;20.60;45.10;;;;;;5071029;28;19920;-68
2023/01/04 06:13:57;;;;;;;;;;;20.70;45.10;;;;;;5075046;28;19920;-67
2023/01/04 06:16:24;;;;;;;;;;;20.70;45.10;;;;;;5059354;28;19921;-68
2023/01/04 06:18:51;;;;;;;;;;;20.70;45.10;;;;;;5086106;28;19920;-68
2023/01/04 06:21:19;;;;;;;;;;;20.70;45.00;;;;;;5083734;28;19927;-67
2023/01/04 06:23:45;;;;;;;;;;;20.70;44.90;;;;;;5073106;28;19920;-66
2023/01/04 06:26:12;;;;;;;;;;;20.80;44.90;;;;;;5068488;28;19924;-64
2023/01/04 06:28:39;;;;;;;;;;;20.80;44.80;;;;;;5066709;28;20015;-64
2023/01/04 06:31:08;;;;;;;;;;;20.80;44.70;;;;;;5059296;28;20412;-66
2023/01/04 06:33:35;;;;;;;;;;;20.90;44.70;;;;;;5066369;28;20368;-65
2023/01/04 06:36:03;;;;;;;;;;;20.90;44.60;;;;;;5066589;28;20376;-65
2023/01/04 06:38:31;;;;;;;;;;;20.90;44.60;;;;;;5062919;28;19927;-65
2023/01/04 06:40:58;;;;;;;;;;;20.90;44.60;;;;;;5066464;28;20300;-63
2023/01/04 06:43:25;;;;;;;;;;;20.90;44.50;;;;;;5044372;28;19928;-63
2023/01/04 06:45:52;;;;;;;;;;;21.00;44.60;;;;;;5059504;28;19935;-65
2023/01/04 06:48:19;;;;;;;;;;;21.00;44.50;;;;;;5059032;28;19921;-64
2023/01/04 06:50:46;;;;;;;;;;;21.00;44.40;;;;;;5060444;28;20022;-65
2023/01/04 06:53:13;;;;;;;;;;;21.10;44.50;;;;;;5055815;28;20455;-65
2023/01/04 06:55:42;;;;;;;;;;;21.10;44.50;;;;;;5062958;28;19928;-65
2023/01/04 06:58:09;;;;;;;;;;;21.20;44.50;;;;;;5058735;28;19978;-65
2023/01/04 07:00:36;;;;;;;;;;;21.20;44.40;;;;;;5064577;28;20410;-66
2023/01/04 07:03:03;;;;;;;;;;;21.20;44.40;;;;;;5056579;28;19934;-64
2023/01/04 07:05:41;;;;;;;;;;;21.30;44.30;;;;;;5062394;28;19920;-65
2023/01/04 07:08:09;;;;;;;;;;;21.30;44.50;;;;;;5059932;28;19939;-66
2023/01/04 07:10:35;;;;;;;;;;;21.30;44.20;;;;;;5062858;28;20007;-64
2023/01/04 07:13:03;;;;;;;;;;;21.40;44.20;;;;;;5072449;28;19963;-66
2023/01/04 07:15:30;;;;;;;;;;;21.30;44.10;;;;;;5067241;28;19921;-69
2023/01/04 07:18:05;;;;;;;;;;;21.40;44.20;;;;;;5048186;28;19931;-62
2023/01/04 07:20:32;;;;;;;;;;;21.50;44.40;;;;;;5070844;28;19928;-67
2023/01/04 07:22:59;;;;;;;;;;;21.50;44.30;;;;;;5057511;28;19920;-65
2023/01/04 07:25:26;;;;;;;;;;;21.50;44.20;;;;;;5068864;28;19928;-65
2023/01/04 07:27:54;;;;;;;;;;;21.60;44.10;;;;;;5069572;28;19929;-66
2023/01/04 07:30:22;;;;;;;;;;;21.60;44.00;;;;;;5069148;28;19929;-66
2023/01/04 07:32:53;;;;;;;;;;;21.60;43.90;;;;;;5063506;28;20349;-66
2023/01/04 07:35:20;;;;;;;;;;;21.70;43.90;;;;;;5061821;28;19978;-64
2023/01/04 07:37:47;;;;;;;;;;;21.70;43.80;;;;;;5062000;28;19920;-62
2023/01/04 07:40:24;;;;;;;;;;;21.70;43.80;;;;;;5064854;28;19924;-66
2023/01/04 07:42:55;;;;;;;;;;;21.80;43.70;;;;;;5061878;28;19920;-66
2023/01/04 07:45:23;;;;;;;;;;;21.80;43.70;;;;;;5066862;28;19928;-67
2023/01/04 07:47:49;;;;;;;;;;;21.80;43.70;;;;;;5060935;28;19924;-63
2023/01/04 07:50:16;;;;;;;;;;;21.80;43.60;;;;;;5060752;28;19930;-66
2023/01/04 07:52:44;;;;;;;;;;;21.90;43.70;;;;;;5066213;28;20043;-64
2023/01/04 07:55:11;;;;;;;;;;;21.90;43.70;;;;;;5070754;28;19920;-63
2023/01/04 07:57:38;;;;;;;;;;;21.90;43.60;;;;;;5017515;28;1325968;-67
2023/01/04 08:00:05;;;;;;;;;;;21.90;43.50;;;;;;5066988;28;19925;-61
2023/01/04 08:02:32;;;;;;;;;;;22.00;43.60;;;;;;5062782;28;19921;-64
2023/01/04 08:05:00;;;;;;;;;;;22.00;43.60;;;;;;5041699;28;19991;-65
2023/01/04 08:07:27;;;;;;;;;;;22.00;43.60;;;;;;5067667;28;20455;-64
2023/01/04 08:09:54;;;;;;;;;;;22.00;43.60;;;;;;5061768;28;19932;-63
2023/01/04 08:12:21;;;;;;;;;;;22.10;43.60;;;;;;5063055;28;19993;-64
2023/01/04 08:14:48;;;;;;;;;;;22.10;43.60;;;;;;5047956;28;19924;-64
2023/01/04 08:17:15;;;;;;;;;;;22.10;43.50;;;;;;5067495;28;19943;-64
2023/01/04 08:19:42;;;;;;;;;;;22.20;43.50;;;;;;5065543;28;20364;-66
2023/01/04 08:22:09;;;;;;;;;;;22.20;43.40;;;;;;5054290;28;19920;-66
2023/01/04 08:24:36;;;;;;;;;;;22.20;43.40;;;;;;5064374;28;19929;-65
2023/01/04 08:27:03;;;;;;;;;;;22.20;43.30;;;;;;5062652;28;20027;-65
2023/01/04 08:29:31;;;;;;;;;;;22.30;43.30;;;;;;5062813;28;20350;-65
2023/01/04 08:32:01;;;;;;;;;;;22.40;43.30;;;;;;5062869;28;19968;-63
2023/01/04 08:34:28;;;;;;;;;;;22.40;43.30;;;;;;5043893;28;20011;-64
2023/01/04 08:36:55;;;;;;;;;;;22.40;43.30;;;;;;5064999;28;19955;-65
2023/01/04 08:39:22;;;;;;;;;;;22.40;43.30;;;;;;5069833;28;19923;-64
2023/01/04 08:41:50;;;;;;;;;;;22.50;43.30;;;;;;5061754;28;20291;-64
2023/01/04 08:44:37;;;;;;;;;;;22.50;43.20;;;;;;5068333;28;19920;-64
2023/01/04 08:47:04;;;;;;;;;;;22.50;43.20;;;;;;5060751;28;19928;-65
2023/01/04 08:49:32;;;;;;;;;;;22.50;43.20;;;;;;5060478;28;20369;-65
2023/01/04 08:51:59;;;;;;;;;;;22.60;43.20;;;;;;5065941;28;19982;-63
2023/01/04 08:54:26;;;;;;;;;;;22.50;43.10;;;;;;5064789;28;19931;-64
2023/01/04 08:56:53;;;;;;;;;;;22.60;43.10;;;;;;5068452;28;20010;-65
2023/01/04 08:59:20;;;;;;;;;;;22.60;43.20;;;;;;5070754;28;19967;-65
2023/01/04 09:01:47;;;;;;;;;;;22.60;43.20;;;;;;5068760;28;20376;-64
2023/01/04 09:04:14;;;;;;;;;;;22.60;43.20;;;;;;5065262;28;19927;-65
2023/01/04 09:06:42;;;;;;;;;;;22.70;43.20;;;;;;5061682;28;20365;-64
2023/01/04 09:09:09;;;;;;;;;;;22.70;43.10;;;;;;5070994;28;20281;-64
2023/01/04 09:11:37;;;;;;;;;;;22.70;43.10;;;;;;5067223;28;19920;-64
2023/01/04 09:14:04;;;;;;;;;;;22.70;43.10;;;;;;5066977;28;19928;-67
2023/01/04 09:16:36;;;;;;;;;;;22.80;43.10;;;;;;5066305;28;19929;-66
2023/01/04 09:19:03;;;;;;;;;;;22.80;43.00;;;;;;5067255;28;20472;-66
2023/01/04 09:21:30;;;;;;;;;;;22.80;42.90;;;;;;5068057;28;19927;-67
2023/01/04 09:23:57;;;;;;;;;;;22.90;42.80;;;;;;5065185;28;19991;-67
2023/01/04 09:26:25;;;;;;;;;;;22.90;42.70;;;;;;5067618;28;20339;-66
2023/01/04 09:28:53;;;;;;;;;;;22.90;42.60;;;;;;5065295;28;19920;-63
2023/01/04 09:31:21;;;;;;;;;;;23.00;42.60;;;;;;5065287;28;19978;-64
2023/01/04 09:33:48;;;;;;;;;;;23.00;42.50;;;;;;5064685;28;19928;-64
2023/01/04 09:36:35;;;;;;;;;;;23.10;42.60;;;;;;5064120;28;19947;-65
2023/01/04 09:39:02;;;;;;;;;;;23.10;42.40;;;;;;5059303;28;19980;-64
2023/01/04 09:41:42;;;;;;;;;;;23.10;42.30;;;;;;5059990;28;20010;-65
2023/01/04 09:44:20;;;;;;;;;;;23.10;42.30;;;;;;5063356;28;20127;-65
2023/01/04 09:46:49;;;;;;;;;;;23.20;42.30;;;;;;5064591;28;19928;-65
2023/01/04 09:49:22;;;;;;;;;;;23.20;42.30;;;;;;5062031;28;20023;-66
2023/01/04 09:52:09;;;;;;;;;;;23.20;42.20;;;;;;5063717;28;20428;-66
2023/01/04 09:54:45;;;;;;;;;;;23.20;42.00;;;;;;5066354;28;20322;-65
2023/01/04 09:57:31;;;;;;;;;;;23.20;42.00;;;;;;5061516;28;19952;-64
2023/01/04 10:00:04;;;;;;;;;;;23.20;41.90;;;;;;5061863;28;20014;-67
2023/01/04 10:02:40;;;;;;;;;;;23.30;42.00;;;;;;5063696;28;20375;-66
2023/01/04 10:05:10;;;;;;;;;;;23.30;42.00;;;;;;5027000;28;19929;-68
2023/01/04 10:07:37;;;;;;;;;;;23.30;41.90;;;;;;5064361;28;20427;-66
2023/01/04 10:10:05;;;;;;;;;;;23.30;41.80;;;;;;5061841;28;20024;-68
2023/01/04 10:12:38;;;;;;;;;;;23.30;41.80;;;;;;5064572;28;19920;-65
2023/01/04 10:15:18;;;;;;;;;;;23.30;41.70;;;;;;5062461;28;19925;-64
2023/01/04 10:18:01;;;;;;;;;;;23.40;41.70;;;;;;5066242;28;19931;-65
2023/01/04 10:20:55;;;;;;;;;;;23.40;41.70;;;;;;5061361;28;19935;-65
2023/01/04 10:23:51;;;;;;;;;;;23.40;41.70;;;;;;5062956;28;19928;-65
2023/01/04 10:26:25;;;;;;;;;;;23.40;41.60;;;;;;5059280;28;19935;-65
2023/01/04 10:29:06;;;;;;;;;;;23.40;41.90;;;;;;5062024;28;19920;-64
2023/01/04 10:31:37;;;;;;;;;;;23.40;41.70;;;;;;5066954;28;20015;-65
2023/01/04 10:34:25;;;;;;;;;;;23.40;41.60;;;;;;5064819;28;19926;-65
2023/01/04 10:37:02;;;;;;;;;;;23.40;42.10;;;;;;5061247;28;20026;-65
2023/01/04 10:39:31;;;;;;;;;;;23.50;41.60;;;;;;5070726;28;19966;-65
2023/01/04 10:42:06;;;;;;;;;;;23.50;41.60;;;;;;5061602;28;19934;-65
2023/01/04 10:44:37;;;;;;;;;;;23.50;41.50;;;;;;5061924;28;19928;-64
2023/01/04 10:47:08;;;;;;;;;;;23.50;41.60;;;;;;5069662;28;19935;-64
2023/01/04 10:49:40;;;;;;;;;;;23.50;41.50;;;;;;5056073;28;20347;-64
2023/01/04 10:52:11;;;;;;;;;;;23.60;41.50;;;;;;5052456;28;19972;-64
2023/01/04 10:54:46;;;;;;;;;;;23.60;41.40;;;;;;5054176;28;19960;-65
2023/01/04 10:57:19;;;;;;;;;;;23.60;41.40;;;;;;5057071;28;20043;-67
2023/01/04 10:59:51;;;;;;;;;;;23.60;41.40;;;;;;5057808;28;19967;-64
2023/01/04 11:02:21;;;;;;;;;;;23.60;41.30;;;;;;5033248;28;19935;-67
2023/01/04 11:04:58;;;;;;;;;;;23.60;41.30;;;;;;5047560;28;19928;-65
2023/01/04 11:07:30;;;;;;;;;;;23.60;41.30;;;;;;5039419;28;19924;-67
2023/01/04 11:10:17;;;;;;;;;;;23.70;41.30;;;;;;5059722;28;20007;-65
2023/01/04 11:12:44;;;;;;;;;;;23.70;41.30;;;;;;5058919;28;19935;-66
2023/01/04 11:15:11;;;;;;;;;;;23.70;41.30;;;;;;5042572;28;20004;-63
2023/01/04 11:17:39;;;;;;;;;;;23.70;41.30;;;;;;5062409;28;19967;-63
2023/01/04 11:20:08;;;;;;;;;;;23.70;41.20;;;;;;5066878;28;19928;-67
2023/01/04 11:22:40;;;;;;;;;;;23.70;41.30;;;;;;5063049;28;19924;-65
2023/01/04 11:25:12;;;;;;;;;;;23.70;41.30;;;;;;5067207;28;19927;-66
2023/01/04 11:28:01;;;;;;;;;;;23.70;41.20;;;;;;5069858;28;19920;-65
2023/01/04 11:30:31;;;;;;;;;;;23.70;41.20;;;;;;5063111;28;19998;-64
2023/01/04 11:33:11;;;;;;;;;;;23.70;41.10;;;;;;5065606;28;20389;-64
2023/01/04 11:35:47;;;;;;;;;;;23.70;41.20;;;;;;5059362;28;19927;-64
2023/01/04 11:38:18;;;;;;;;;;;23.70;41.10;;;;;;5063631;28;19928;-65
2023/01/04 11:40:58;;;;;;;;;;;23.70;41.10;;;;;;5057354;28;19971;-66
2023/01/04 11:43:29;;;;;;;;;;;23.60;41.10;;;;;;5064105;28;19930;-66
2023/01/04 11:46:01;;;;;;;;;;;23.60;41.10;;;;;;5062818;28;19959;-68
2023/01/04 11:48:33;;;;;;;;;;;23.60;41.00;;;;;;5066632;28;19934;-67
2023/01/04 11:51:01;;;;;;;;;;;23.60;41.50;;;;;;5061797;28;19921;-66
2023/01/04 11:53:30;;;;;;;;;;;23.60;41.10;;;;;;5067462;28;19928;-66
2023/01/04 11:56:09;;;;;;;;;;;23.60;41.00;;;;;;5060285;28;19999;-66
2023/01/04 11:58:36;;;;;;;;;;;23.60;41.10;;;;;;5058659;28;20007;-66
2023/01/04 12:01:04;;;;;;;;;;;23.60;41.10;;;;;;5057239;28;19932;-67
2023/01/04 12:03:39;;;;;;;;;;;23.60;41.10;;;;;;5055644;28;20023;-64
2023/01/04 12:06:12;;;;;;;;;;;23.60;41.10;;;;;;5060991;28;19927;-66
2023/01/04 12:08:41;;;;;;;;;;;23.60;41.00;;;;;;5062577;28;20347;-64
2023/01/04 12:11:16;;;;;;;;;;;23.60;40.90;;;;;;5063029;28;19942;-64
2023/01/04 12:13:44;;;;;;;;;;;23.70;41.00;;;;;;5061193;28;19970;-62
2023/01/04 12:16:31;;;;;;;;;;;23.60;40.90;;;;;;5061095;28;20015;-64
2023/01/04 12:18:58;;;;;;;;;;;23.70;41.00;;;;;;5045449;28;19959;-63
2023/01/04 12:21:26;;;;;;;;;;;23.70;41.00;;;;;;5062887;28;21978;-63
2023/01/04 12:23:53;;;;;;;;;;;23.60;40.90;;;;;;5058837;28;20014;-64
2023/01/04 12:26:22;;;;;;;;;;;23.70;41.20;;;;;;5069734;28;19921;-65
2023/01/04 12:28:57;;;;;;;;;;;23.70;40.80;;;;;;5063575;28;19921;-64
2023/01/04 12:31:26;;;;;;;;;;;23.70;40.70;;;;;;5068854;28;19974;-65
2023/01/04 12:34:12;;;;;;;;;;;23.70;40.60;;;;;;5064024;28;20052;-66
2023/01/04 12:36:59;;;;;;;;;;;23.70;40.70;;;;;;5066199;28;19927;-63
2023/01/04 12:39:40;;;;;;;;;;;23.70;40.70;;;;;;5051975;28;19952;-66
2023/01/04 12:42:10;;;;;;;;;;;23.70;40.60;;;;;;5067000;28;20065;-66
2023/01/04 12:44:57;;;;;;;;;;;23.70;40.60;;;;;;5061634;28;20034;-65
2023/01/04 12:50:28;;;;;;;;;;;23.70;40.50;;;;;;5062945;28;19924;-65
2023/01/04 12:52:57;;;;;;;;;;;23.70;40.40;;;;;;5066024;28;19924;-64
2023/01/04 12:55:48;;;;;;;;;;;23.70;40.40;;;;;;5046394;28;19974;-64
2023/01/04 12:58:34;;;;;;;;;;;23.70;40.50;;;;;;5075387;28;20004;-64
2023/01/04 13:01:26;;;;;;;;;;;23.70;40.50;;;;;;5049723;28;19924;-65
2023/01/04 13:03:56;;;;;;;;;;;23.70;40.50;;;;;;5067529;28;20319;-64
2023/01/04 13:06:33;;;;;;;;;;;23.70;40.50;;;;;;5045039;28;19985;-66
2023/01/04 13:09:00;;;;;;;;;;;23.70;40.50;;;;;;5064393;28;19931;-66
2023/01/04 13:11:47;;;;;;;;;;;23.80;40.50;;;;;;5065898;28;19960;-66
2023/01/04 13:14:23;;;;;;;;;;;23.80;40.40;;;;;;5063383;28;19920;-66
2023/01/04 13:17:01;;;;;;;;;;;23.70;40.30;;;;;;5064283;28;19928;-67
2023/01/04 13:19:29;;;;;;;;;;;23.70;40.20;;;;;;5063118;28;19928;-68
2023/01/04 13:21:57;;;;;;;;;;;23.70;40.10;;;;;;5061067;28;20381;-67
2023/01/04 13:24:33;;;;;;;;;;;23.70;40.20;;;;;;5063269;28;19924;-66
2023/01/04 13:27:07;;;;;;;;;;;23.70;40.20;;;;;;5063610;28;20300;-69
2023/01/04 13:29:34;;;;;;;;;;;23.70;40.30;;;;;;5058912;28;20013;-68
2023/01/04 13:32:10;;;;;;;;;;;23.70;40.30;;;;;;5059238;28;19939;-67
2023/01/04 13:34:58;;;;;;;;;;;23.70;40.30;;;;;;5059974;28;19920;-68
2023/01/04 13:37:33;;;;;;;;;;;23.70;40.40;;;;;;5063199;28;19929;-67
2023/01/04 13:40:20;;;;;;;;;;;23.70;40.30;;;;;;5061634;28;20018;-65
2023/01/04 13:42:50;;;;;;;;;;;23.70;40.20;;;;;;5059830;28;19928;-64
2023/01/04 13:45:29;;;;;;;;;;;23.70;40.20;;;;;;5040687;28;19955;-64
2023/01/04 13:47:57;;;;;;;;;;;23.70;40.40;;;;;;5060269;28;19960;-64
2023/01/04 13:50:35;;;;;;;;;;;23.70;40.20;;;;;;5064558;28;20361;-62
2023/01/04 13:53:03;;;;;;;;;;;23.70;40.20;;;;;;5063472;28;19920;-65
2023/01/04 13:55:36;;;;;;;;;;;23.70;40.20;;;;;;5070068;28;19963;-67
2023/01/04 13:58:04;;;;;;;;;;;23.70;40.20;;;;;;5074434;28;19974;-65
2023/01/04 14:00:41;;;;;;;;;;;23.70;40.30;;;;;;5066204;28;19928;-65
2023/01/04 14:03:16;;;;;;;;;;;23.70;40.30;;;;;;5064718;28;19928;-62
2023/01/04 14:05:46;;;;;;;;;;;23.70;40.40;;;;;;5061227;28;19925;-65
2023/01/04 14:08:17;;;;;;;;;;;23.70;40.40;;;;;;5066058;28;20027;-65
2023/01/04 14:10:44;;;;;;;;;;;23.60;40.40;;;;;;5074221;28;19956;-69
2023/01/04 14:13:16;;;;;;;;;;;23.60;40.50;;;;;;5068815;28;20004;-65
2023/01/04 14:15:43;;;;;;;;;;;23.60;40.40;;;;;;5068257;28;19973;-66
2023/01/04 14:18:27;;;;;;;;;;;23.60;40.40;;;;;;5066998;28;19924;-64
2023/01/04 14:20:54;;;;;;;;;;;23.60;40.50;;;;;;5064205;28;20018;-65
2023/01/04 14:23:25;;;;;;;;;;;23.60;40.50;;;;;;5060168;28;20446;-66
2023/01/04 14:25:56;;;;;;;;;;;23.60;40.40;;;;;;5065652;28;19944;-67
2023/01/04 14:28:29;;;;;;;;;;;23.60;40.50;;;;;;5069447;28;19920;-69
2023/01/04 14:31:13;;;;;;;;;;;23.60;40.40;;;;;;5064400;28;20374;-68
2023/01/04 14:33:43;;;;;;;;;;;23.60;40.40;;;;;;5066251;28;20400;-67
2023/01/04 14:36:13;;;;;;;;;;;23.60;40.40;;;;;;5063901;28;20335;-66
2023/01/04 14:38:47;;;;;;;;;;;23.60;40.40;;;;;;5062691;28;19938;-66
2023/01/04 14:41:18;;;;;;;;;;;23.60;40.40;;;;;;5059396;28;19971;-65
2023/01/04 14:43:46;;;;;;;;;;;23.60;40.40;;;;;;5047851;28;19924;-68
2023/01/04 14:46:14;;;;;;;;;;;23.50;40.30;;;;;;5053892;28;20372;-65
2023/01/04 14:48:41;;;;;;;;;;;23.50;40.30;;;;;;5056605;28;19986;-69
2023/01/04 14:51:11;;;;;;;;;;;23.50;40.30;;;;;;5059104;28;20029;-67
2023/01/04 14:53:38;;;;;;;;;;;23.50;40.30;;;;;;5041919;28;20015;-66
2023/01/04 14:56:06;;;;;;;;;;;23.50;40.30;;;;;;5062715;28;19924;-66
2023/01/04 14:58:33;;;;;;;;;;;23.50;40.40;;;;;;5061240;28;19928;-65
2023/01/04 15:00:59;;;;;;;;;;;23.50;40.30;;;;;;5062533;28;19959;-65
2023/01/04 15:03:26;;;;;;;;;;;23.40;40.30;;;;;;5056182;28;19924;-66
2023/01/04 15:05:54;;;;;;;;;;;23.40;40.40;;;;;;5071576;28;19925;-66
2023/01/04 15:08:21;;;;;;;;;;;23.40;40.50;;;;;;5064171;28;19921;-66
2023/01/04 15:10:48;;;;;;;;;;;23.40;40.70;;;;;;5065792;28;19958;-63
2023/01/04 15:13:23;;;;;;;;;;;23.40;40.80;;;;;;5072035;28;20284;-66
2023/01/04 15:15:50;;;;;;;;;;;23.40;40.90;;;;;;5062030;28;20410;-71
2023/01/04 15:18:17;;;;;;;;;;;23.40;41.00;;;;;;5061148;28;20007;-67
2023/01/04 15:20:44;;;;;;;;;;;23.30;41.10;;;;;;5063379;28;20372;-69
2023/01/04 15:23:11;;;;;;;;;;;23.30;41.20;;;;;;5044060;28;19971;-68
2023/01/04 15:25:39;;;;;;;;;;;23.30;41.30;;;;;;5057609;28;19920;-66
2023/01/04 15:28:06;;;;;;;;;;;23.30;41.50;;;;;;5056906;28;20022;-65